sensor_id;sensor_type;location;lat;lon;timestamp;temperature;humidity
49731;DHT22;35622;52.008;5.426;2022-12-18T00:00:43;1.60;69.70
49731;DHT22;35622;52.008;5.426;2022-12-18T00:03:09;1.80;69.80
49731;DHT22;35622;52.008;5.426;2022-12-18T00:05:35;1.50;69.30
49731;DHT22;35622;52.008;5.426;2022-12-18T00:08:02;1.60;69.70
49731;DHT22;35622;52.008;5.426;2022-12-18T00:10:28;1.90;69.10
49731;DHT22;35622;52.008;5.426;2022-12-18T00:12:54;1.80;68.50
49731;DHT22;35622;52.008;5.426;2022-12-18T00:15:19;1.80;68.00
49731;DHT22;35622;52.008;5.426;2022-12-18T00:17:45;1.30;69.50
49731;DHT22;35622;52.008;5.426;2022-12-18T00:20:11;1.40;69.90
49731;DHT22;35622;52.008;5.426;2022-12-18T00:22:37;1.30;70.20
49731;DHT22;35622;52.008;5.426;2022-12-18T00:25:02;1.30;70.30
49731;DHT22;35622;52.008;5.426;2022-12-18T00:27:28;1.40;70.20
49731;DHT22;35622;52.008;5.426;2022-12-18T00:29:54;1.40;70.20
49731;DHT22;35622;52.008;5.426;2022-12-18T00:32:19;1.60;69.50
49731;DHT22;35622;52.008;5.426;2022-12-18T00:34:45;1.60;69.40
49731;DHT22;35622;52.008;5.426;2022-12-18T00:37:10;1.60;69.50
49731;DHT22;35622;52.008;5.426;2022-12-18T00:39:36;1.60;69.10
49731;DHT22;35622;52.008;5.426;2022-12-18T00:42:02;1.80;67.80
49731;DHT22;35622;52.008;5.426;2022-12-18T00:44:46;1.30;68.50
49731;DHT22;35622;52.008;5.426;2022-12-18T00:47:11;1.50;68.90
49731;DHT22;35622;52.008;5.426;2022-12-18T00:49:37;1.40;68.90
49731;DHT22;35622;52.008;5.426;2022-12-18T00:52:03;1.20;69.10
49731;DHT22;35622;52.008;5.426;2022-12-18T00:54:28;0.80;70.20
49731;DHT22;35622;52.008;5.426;2022-12-18T00:56:54;1.10;70.60
49731;DHT22;35622;52.008;5.426;2022-12-18T00:59:20;1.30;70.00
49731;DHT22;35622;52.008;5.426;2022-12-18T01:01:46;1.40;69.30
49731;DHT22;35622;52.008;5.426;2022-12-18T01:04:12;1.30;68.90
49731;DHT22;35622;52.008;5.426;2022-12-18T01:06:38;1.40;69.20
49731;DHT22;35622;52.008;5.426;2022-12-18T01:09:04;1.40;68.60
49731;DHT22;35622;52.008;5.426;2022-12-18T01:11:30;1.40;67.90
49731;DHT22;35622;52.008;5.426;2022-12-18T01:13:56;1.00;67.80
49731;DHT22;35622;52.008;5.426;2022-12-18T01:16:22;0.90;68.60
49731;DHT22;35622;52.008;5.426;2022-12-18T01:18:51;0.80;69.00
49731;DHT22;35622;52.008;5.426;2022-12-18T01:21:17;0.90;69.30
49731;DHT22;35622;52.008;5.426;2022-12-18T01:23:43;1.00;68.70
49731;DHT22;35622;52.008;5.426;2022-12-18T01:26:11;0.80;68.50
49731;DHT22;35622;52.008;5.426;2022-12-18T01:28:37;1.00;68.50
49731;DHT22;35622;52.008;5.426;2022-12-18T01:33:39;0.80;68.50
49731;DHT22;35622;52.008;5.426;2022-12-18T01:36:05;0.70;68.40
49731;DHT22;35622;52.008;5.426;2022-12-18T01:38:31;0.70;68.90
49731;DHT22;35622;52.008;5.426;2022-12-18T01:40:58;0.60;68.90
49731;DHT22;35622;52.008;5.426;2022-12-18T01:43:44;0.60;68.60
49731;DHT22;35622;52.008;5.426;2022-12-18T01:46:10;0.50;68.70
49731;DHT22;35622;52.008;5.426;2022-12-18T01:48:37;0.50;68.80
49731;DHT22;35622;52.008;5.426;2022-12-18T01:51:04;0.60;68.80
49731;DHT22;35622;52.008;5.426;2022-12-18T01:53:31;0.50;68.50
49731;DHT22;35622;52.008;5.426;2022-12-18T01:55:57;0.40;68.50
49731;DHT22;35622;52.008;5.426;2022-12-18T01:58:32;0.40;68.60
49731;DHT22;35622;52.008;5.426;2022-12-18T02:01:00;0.40;69.10
49731;DHT22;35622;52.008;5.426;2022-12-18T02:03:25;0.40;67.60
49731;DHT22;35622;52.008;5.426;2022-12-18T02:13:51;0.30;67.30
49731;DHT22;35622;52.008;5.426;2022-12-18T02:19:55;0.30;66.60
49731;DHT22;35622;52.008;5.426;2022-12-18T02:22:20;0.10;66.50
49731;DHT22;35622;52.008;5.426;2022-12-18T02:24:57;0.10;66.40
49731;DHT22;35622;52.008;5.426;2022-12-18T02:27:24;0.00;66.30
49731;DHT22;35622;52.008;5.426;2022-12-18T02:29:53;-0.10;66.40
49731;DHT22;35622;52.008;5.426;2022-12-18T02:32:28;-0.20;66.50
49731;DHT22;35622;52.008;5.426;2022-12-18T02:34:56;-0.20;66.80
49731;DHT22;35622;52.008;5.426;2022-12-18T02:37:23;-0.30;66.40
49731;DHT22;35622;52.008;5.426;2022-12-18T02:39:52;-0.40;66.40
49731;DHT22;35622;52.008;5.426;2022-12-18T02:42:20;-0.40;66.50
49731;DHT22;35622;52.008;5.426;2022-12-18T02:44:50;-0.50;66.20
49731;DHT22;35622;52.008;5.426;2022-12-18T02:47:20;-0.50;66.50
49731;DHT22;35622;52.008;5.426;2022-12-18T02:55:37;-0.60;66.10
49731;DHT22;35622;52.008;5.426;2022-12-18T03:01:24;-0.50;65.50
49731;DHT22;35622;52.008;5.426;2022-12-18T03:03:57;-0.70;65.90
49731;DHT22;35622;52.008;5.426;2022-12-18T03:06:28;-0.60;66.10
49731;DHT22;35622;52.008;5.426;2022-12-18T03:09:08;-0.70;66.10
49731;DHT22;35622;52.008;5.426;2022-12-18T03:11:37;-0.90;66.10
49731;DHT22;35622;52.008;5.426;2022-12-18T03:14:24;-0.90;66.30
49731;DHT22;35622;52.008;5.426;2022-12-18T03:16:53;-0.90;66.30
49731;DHT22;35622;52.008;5.426;2022-12-18T03:19:22;-0.90;66.00
49731;DHT22;35622;52.008;5.426;2022-12-18T03:21:53;-0.90;66.30
49731;DHT22;35622;52.008;5.426;2022-12-18T03:24:20;-0.90;66.00
49731;DHT22;35622;52.008;5.426;2022-12-18T03:26:49;-0.90;65.40
49731;DHT22;35622;52.008;5.426;2022-12-18T03:29:26;-1.00;65.60
49731;DHT22;35622;52.008;5.426;2022-12-18T03:31:57;-1.00;65.60
49731;DHT22;35622;52.008;5.426;2022-12-18T03:34:29;-1.00;66.00
49731;DHT22;35622;52.008;5.426;2022-12-18T03:36:56;-1.10;65.60
49731;DHT22;35622;52.008;5.426;2022-12-18T03:39:21;-1.00;65.30
49731;DHT22;35622;52.008;5.426;2022-12-18T03:41:52;-1.10;65.20
49731;DHT22;35622;52.008;5.426;2022-12-18T03:47:22;-1.20;65.00
49731;DHT22;35622;52.008;5.426;2022-12-18T03:49:56;-1.20;65.20
49731;DHT22;35622;52.008;5.426;2022-12-18T03:52:43;-1.40;65.00
49731;DHT22;35622;52.008;5.426;2022-12-18T03:55:11;-1.30;65.50
49731;DHT22;35622;52.008;5.426;2022-12-18T03:57:38;-1.40;65.60
49731;DHT22;35622;52.008;5.426;2022-12-18T04:00:11;-1.40;65.90
49731;DHT22;35622;52.008;5.426;2022-12-18T04:02:41;-1.40;65.70
49731;DHT22;35622;52.008;5.426;2022-12-18T04:05:09;-1.40;65.70
49731;DHT22;35622;52.008;5.426;2022-12-18T04:07:36;-1.40;65.60
49731;DHT22;35622;52.008;5.426;2022-12-18T04:10:03;-1.40;65.70
49731;DHT22;35622;52.008;5.426;2022-12-18T04:12:30;-1.30;65.40
49731;DHT22;35622;52.008;5.426;2022-12-18T04:14:56;-1.30;64.80
49731;DHT22;35622;52.008;5.426;2022-12-18T04:17:22;-1.40;64.70
49731;DHT22;35622;52.008;5.426;2022-12-18T04:19:48;-1.50;65.50
49731;DHT22;35622;52.008;5.426;2022-12-18T04:22:13;-1.50;65.80
49731;DHT22;35622;52.008;5.426;2022-12-18T04:24:39;-1.40;65.60
49731;DHT22;35622;52.008;5.426;2022-12-18T04:27:05;-1.50;66.30
49731;DHT22;35622;52.008;5.426;2022-12-18T04:29:30;-1.40;66.70
49731;DHT22;35622;52.008;5.426;2022-12-18T04:31:56;-1.30;66.30
49731;DHT22;35622;52.008;5.426;2022-12-18T04:34:22;-1.30;66.50
49731;DHT22;35622;52.008;5.426;2022-12-18T04:36:47;-1.30;66.40
49731;DHT22;35622;52.008;5.426;2022-12-18T04:39:13;-1.30;66.40
49731;DHT22;35622;52.008;5.426;2022-12-18T04:41:39;-1.30;66.60
49731;DHT22;35622;52.008;5.426;2022-12-18T04:44:04;-1.10;67.40
49731;DHT22;35622;52.008;5.426;2022-12-18T04:46:30;-1.10;68.10
49731;DHT22;35622;52.008;5.426;2022-12-18T04:48:55;-1.20;68.20
49731;DHT22;35622;52.008;5.426;2022-12-18T04:51:21;-1.30;68.40
49731;DHT22;35622;52.008;5.426;2022-12-18T04:53:47;-1.20;68.80
49731;DHT22;35622;52.008;5.426;2022-12-18T04:56:14;-1.10;68.50
49731;DHT22;35622;52.008;5.426;2022-12-18T04:58:42;-1.00;68.50
49731;DHT22;35622;52.008;5.426;2022-12-18T05:01:09;-1.10;68.30
49731;DHT22;35622;52.008;5.426;2022-12-18T05:03:36;-1.20;68.50
49731;DHT22;35622;52.008;5.426;2022-12-18T05:06:02;-1.20;69.60
49731;DHT22;35622;52.008;5.426;2022-12-18T05:08:28;-1.30;69.60
49731;DHT22;35622;52.008;5.426;2022-12-18T05:11:05;-1.30;69.70
49731;DHT22;35622;52.008;5.426;2022-12-18T05:13:31;-1.10;69.80
49731;DHT22;35622;52.008;5.426;2022-12-18T05:15:57;-1.10;69.70
49731;DHT22;35622;52.008;5.426;2022-12-18T05:18:23;-0.90;69.30
49731;DHT22;35622;52.008;5.426;2022-12-18T05:20:53;-0.80;69.20
49731;DHT22;35622;52.008;5.426;2022-12-18T05:23:20;-0.80;68.50
49731;DHT22;35622;52.008;5.426;2022-12-18T05:26:05;-0.70;67.90
49731;DHT22;35622;52.008;5.426;2022-12-18T05:28:33;-0.70;67.30
49731;DHT22;35622;52.008;5.426;2022-12-18T05:31:01;-0.80;67.20
49731;DHT22;35622;52.008;5.426;2022-12-18T05:33:30;-0.80;66.70
49731;DHT22;35622;52.008;5.426;2022-12-18T05:35:58;-0.80;67.40
49731;DHT22;35622;52.008;5.426;2022-12-18T05:38:29;-0.80;67.20
49731;DHT22;35622;52.008;5.426;2022-12-18T05:40:55;-0.60;66.70
49731;DHT22;35622;52.008;5.426;2022-12-18T05:43:22;-0.70;66.70
49731;DHT22;35622;52.008;5.426;2022-12-18T05:45:49;-0.90;67.10
49731;DHT22;35622;52.008;5.426;2022-12-18T05:48:16;-1.00;67.70
49731;DHT22;35622;52.008;5.426;2022-12-18T05:50:43;-0.90;68.30
49731;DHT22;35622;52.008;5.426;2022-12-18T05:53:11;-0.90;68.30
49731;DHT22;35622;52.008;5.426;2022-12-18T05:55:38;-0.90;68.10
49731;DHT22;35622;52.008;5.426;2022-12-18T05:58:06;-0.80;67.80
49731;DHT22;35622;52.008;5.426;2022-12-18T06:00:33;-0.60;67.30
49731;DHT22;35622;52.008;5.426;2022-12-18T06:03:00;-1.00;67.80
49731;DHT22;35622;52.008;5.426;2022-12-18T06:05:26;-1.00;68.80
49731;DHT22;35622;52.008;5.426;2022-12-18T06:07:52;-0.90;68.80
49731;DHT22;35622;52.008;5.426;2022-12-18T06:10:17;-1.00;68.50
49731;DHT22;35622;52.008;5.426;2022-12-18T06:12:43;-1.00;70.00
49731;DHT22;35622;52.008;5.426;2022-12-18T06:15:09;-0.90;69.40
49731;DHT22;35622;52.008;5.426;2022-12-18T06:17:36;-0.90;68.80
49731;DHT22;35622;52.008;5.426;2022-12-18T06:20:03;-1.00;68.20
49731;DHT22;35622;52.008;5.426;2022-12-18T06:22:30;-0.90;68.10
49731;DHT22;35622;52.008;5.426;2022-12-18T06:24:56;-0.90;67.70
49731;DHT22;35622;52.008;5.426;2022-12-18T06:27:21;-1.20;68.00
49731;DHT22;35622;52.008;5.426;2022-12-18T06:29:47;-1.00;68.10
49731;DHT22;35622;52.008;5.426;2022-12-18T06:32:13;-1.00;67.50
49731;DHT22;35622;52.008;5.426;2022-12-18T06:34:38;-0.90;67.30
49731;DHT22;35622;52.008;5.426;2022-12-18T06:37:04;-0.90;66.90
49731;DHT22;35622;52.008;5.426;2022-12-18T06:39:30;-0.90;66.70
49731;DHT22;35622;52.008;5.426;2022-12-18T06:41:55;-1.00;66.60
49731;DHT22;35622;52.008;5.426;2022-12-18T06:44:21;-1.20;68.10
49731;DHT22;35622;52.008;5.426;2022-12-18T06:46:47;-1.20;68.60
49731;DHT22;35622;52.008;5.426;2022-12-18T06:49:13;-1.10;68.80
49731;DHT22;35622;52.008;5.426;2022-12-18T06:51:38;-0.90;67.70
49731;DHT22;35622;52.008;5.426;2022-12-18T06:54:04;-1.00;66.70
49731;DHT22;35622;52.008;5.426;2022-12-18T06:56:30;-1.00;66.50
49731;DHT22;35622;52.008;5.426;2022-12-18T06:58:55;-1.30;67.40
49731;DHT22;35622;52.008;5.426;2022-12-18T07:01:22;-1.30;67.80
49731;DHT22;35622;52.008;5.426;2022-12-18T07:03:55;-1.20;67.90
49731;DHT22;35622;52.008;5.426;2022-12-18T07:06:22;-1.10;67.60
49731;DHT22;35622;52.008;5.426;2022-12-18T07:08:49;-1.20;66.50
49731;DHT22;35622;52.008;5.426;2022-12-18T07:11:16;-1.00;66.90
49731;DHT22;35622;52.008;5.426;2022-12-18T07:13:42;-1.10;67.30
49731;DHT22;35622;52.008;5.426;2022-12-18T07:16:10;-1.00;67.40
49731;DHT22;35622;52.008;5.426;2022-12-18T07:18:36;-1.00;67.20
49731;DHT22;35622;52.008;5.426;2022-12-18T07:21:06;-1.10;67.30
49731;DHT22;35622;52.008;5.426;2022-12-18T07:23:33;-1.20;67.60
49731;DHT22;35622;52.008;5.426;2022-12-18T07:26:07;-1.10;68.80
49731;DHT22;35622;52.008;5.426;2022-12-18T07:28:35;-1.00;67.70
49731;DHT22;35622;52.008;5.426;2022-12-18T07:31:12;-0.90;67.10
49731;DHT22;35622;52.008;5.426;2022-12-18T07:33:38;-1.10;68.20
49731;DHT22;35622;52.008;5.426;2022-12-18T07:36:05;-0.80;68.20
49731;DHT22;35622;52.008;5.426;2022-12-18T07:38:33;-0.80;68.20
49731;DHT22;35622;52.008;5.426;2022-12-18T07:41:12;-0.80;69.30
49731;DHT22;35622;52.008;5.426;2022-12-18T07:43:39;-0.90;69.10
49731;DHT22;35622;52.008;5.426;2022-12-18T07:46:05;-0.80;69.50
49731;DHT22;35622;52.008;5.426;2022-12-18T07:48:31;-0.70;69.10
49731;DHT22;35622;52.008;5.426;2022-12-18T07:51:01;-0.80;69.10
49731;DHT22;35622;52.008;5.426;2022-12-18T07:53:27;-0.50;69.30
49731;DHT22;35622;52.008;5.426;2022-12-18T07:56:00;-0.70;68.50
49731;DHT22;35622;52.008;5.426;2022-12-18T07:58:26;-0.30;68.20
49731;DHT22;35622;52.008;5.426;2022-12-18T08:00:52;-0.30;68.30
49731;DHT22;35622;52.008;5.426;2022-12-18T08:03:18;-0.10;67.50
49731;DHT22;35622;52.008;5.426;2022-12-18T08:05:44;-0.30;67.70
49731;DHT22;35622;52.008;5.426;2022-12-18T08:08:10;-0.20;68.10
49731;DHT22;35622;52.008;5.426;2022-12-18T08:10:35;-0.10;68.10
49731;DHT22;35622;52.008;5.426;2022-12-18T08:13:02;-0.10;67.70
49731;DHT22;35622;52.008;5.426;2022-12-18T08:15:27;0.10;67.70
49731;DHT22;35622;52.008;5.426;2022-12-18T08:17:56;0.10;67.20
49731;DHT22;35622;52.008;5.426;2022-12-18T08:20:22;0.30;67.20
49731;DHT22;35622;52.008;5.426;2022-12-18T08:22:47;0.20;68.10
49731;DHT22;35622;52.008;5.426;2022-12-18T08:25:13;0.40;67.60
49731;DHT22;35622;52.008;5.426;2022-12-18T08:27:38;0.40;67.70
49731;DHT22;35622;52.008;5.426;2022-12-18T08:30:05;0.40;68.10
49731;DHT22;35622;52.008;5.426;2022-12-18T08:32:31;0.60;68.50
49731;DHT22;35622;52.008;5.426;2022-12-18T08:34:58;0.30;69.10
49731;DHT22;35622;52.008;5.426;2022-12-18T08:37:23;0.60;69.40
49731;DHT22;35622;52.008;5.426;2022-12-18T08:39:49;0.90;68.40
49731;DHT22;35622;52.008;5.426;2022-12-18T08:42:15;0.90;68.10
49731;DHT22;35622;52.008;5.426;2022-12-18T08:45:13;0.70;68.00
49731;DHT22;35622;52.008;5.426;2022-12-18T08:47:39;0.90;68.50
49731;DHT22;35622;52.008;5.426;2022-12-18T08:50:05;1.10;68.40
49731;DHT22;35622;52.008;5.426;2022-12-18T08:52:32;1.10;67.80
49731;DHT22;35622;52.008;5.426;2022-12-18T08:54:58;1.10;68.00
49731;DHT22;35622;52.008;5.426;2022-12-18T08:57:23;1.20;67.80
49731;DHT22;35622;52.008;5.426;2022-12-18T08:59:49;1.50;67.80
49731;DHT22;35622;52.008;5.426;2022-12-18T09:02:14;1.80;67.20
49731;DHT22;35622;52.008;5.426;2022-12-18T09:04:40;1.70;66.40
49731;DHT22;35622;52.008;5.426;2022-12-18T09:07:06;1.70;66.60
49731;DHT22;35622;52.008;5.426;2022-12-18T09:09:32;1.80;67.30
49731;DHT22;35622;52.008;5.426;2022-12-18T09:11:58;2.10;67.10
49731;DHT22;35622;52.008;5.426;2022-12-18T09:14:23;2.20;65.10
49731;DHT22;35622;52.008;5.426;2022-12-18T09:16:49;1.90;65.20
49731;DHT22;35622;52.008;5.426;2022-12-18T09:19:15;2.00;66.20
49731;DHT22;35622;52.008;5.426;2022-12-18T09:21:40;1.50;65.00
49731;DHT22;35622;52.008;5.426;2022-12-18T09:24:06;1.90;66.90
49731;DHT22;35622;52.008;5.426;2022-12-18T09:26:32;2.00;66.60
49731;DHT22;35622;52.008;5.426;2022-12-18T09:28:57;2.20;66.40
49731;DHT22;35622;52.008;5.426;2022-12-18T09:31:24;2.20;65.70
49731;DHT22;35622;52.008;5.426;2022-12-18T09:33:50;2.60;65.60
49731;DHT22;35622;52.008;5.426;2022-12-18T09:36:17;2.70;65.40
49731;DHT22;35622;52.008;5.426;2022-12-18T09:38:43;2.90;65.50
49731;DHT22;35622;52.008;5.426;2022-12-18T09:46:41;2.80;64.00
49731;DHT22;35622;52.008;5.426;2022-12-18T09:49:14;2.50;63.30
49731;DHT22;35622;52.008;5.426;2022-12-18T09:51:48;2.80;64.30
49731;DHT22;35622;52.008;5.426;2022-12-18T09:54:20;2.80;63.50
49731;DHT22;35622;52.008;5.426;2022-12-18T09:56:47;2.70;63.20
49731;DHT22;35622;52.008;5.426;2022-12-18T09:59:30;2.60;63.50
49731;DHT22;35622;52.008;5.426;2022-12-18T10:01:57;2.90;63.50
49731;DHT22;35622;52.008;5.426;2022-12-18T10:04:24;2.70;63.00
49731;DHT22;35622;52.008;5.426;2022-12-18T10:06:59;2.80;63.40
49731;DHT22;35622;52.008;5.426;2022-12-18T10:09:37;2.90;63.60
49731;DHT22;35622;52.008;5.426;2022-12-18T10:15:16;3.20;61.60
49731;DHT22;35622;52.008;5.426;2022-12-18T10:20:49;3.30;61.40
49731;DHT22;35622;52.008;5.426;2022-12-18T10:23:44;2.60;61.40
49731;DHT22;35622;52.008;5.426;2022-12-18T10:26:14;2.60;62.60
49731;DHT22;35622;52.008;5.426;2022-12-18T10:28:41;2.60;62.40
49731;DHT22;35622;52.008;5.426;2022-12-18T10:33:42;2.60;63.60
49731;DHT22;35622;52.008;5.426;2022-12-18T10:36:08;2.20;63.10
49731;DHT22;35622;52.008;5.426;2022-12-18T10:38:34;2.60;64.60
49731;DHT22;35622;52.008;5.426;2022-12-18T10:41:08;2.70;63.60
49731;DHT22;35622;52.008;5.426;2022-12-18T10:44:11;3.10;63.50
49731;DHT22;35622;52.008;5.426;2022-12-18T10:46:38;3.40;61.30
49731;DHT22;35622;52.008;5.426;2022-12-18T10:49:04;3.10;60.50
49731;DHT22;35622;52.008;5.426;2022-12-18T10:51:36;3.40;61.30
49731;DHT22;35622;52.008;5.426;2022-12-18T10:54:03;3.80;61.30
49731;DHT22;35622;52.008;5.426;2022-12-18T10:56:31;3.70;60.20
49731;DHT22;35622;52.008;5.426;2022-12-18T10:59:07;3.50;60.70
49731;DHT22;35622;52.008;5.426;2022-12-18T11:02:07;3.80;60.60
49731;DHT22;35622;52.008;5.426;2022-12-18T11:04:51;3.90;58.40
49731;DHT22;35622;52.008;5.426;2022-12-18T11:07:17;3.90;59.00
49731;DHT22;35622;52.008;5.426;2022-12-18T11:09:43;4.00;59.00
49731;DHT22;35622;52.008;5.426;2022-12-18T11:12:17;4.30;58.30
49731;DHT22;35622;52.008;5.426;2022-12-18T11:14:52;4.30;58.50
49731;DHT22;35622;52.008;5.426;2022-12-18T11:19:56;4.00;59.00
49731;DHT22;35622;52.008;5.426;2022-12-18T11:22:34;3.90;59.00
49731;DHT22;35622;52.008;5.426;2022-12-18T11:27:39;4.30;58.70
49731;DHT22;35622;52.008;5.426;2022-12-18T11:30:27;4.30;58.90
49731;DHT22;35622;52.008;5.426;2022-12-18T11:32:58;4.40;58.20
49731;DHT22;35622;52.008;5.426;2022-12-18T11:35:30;4.40;58.00
49731;DHT22;35622;52.008;5.426;2022-12-18T11:38:06;4.70;58.20
49731;DHT22;35622;52.008;5.426;2022-12-18T11:40:40;4.90;56.40
49731;DHT22;35622;52.008;5.426;2022-12-18T11:43:14;4.90;55.80
49731;DHT22;35622;52.008;5.426;2022-12-18T11:46:03;4.50;57.10
49731;DHT22;35622;52.008;5.426;2022-12-18T11:48:34;4.00;57.20
49731;DHT22;35622;52.008;5.426;2022-12-18T11:51:05;4.20;58.20
49731;DHT22;35622;52.008;5.426;2022-12-18T11:53:34;4.40;57.80
49731;DHT22;35622;52.008;5.426;2022-12-18T12:04:07;3.90;57.30
49731;DHT22;35622;52.008;5.426;2022-12-18T12:09:27;4.60;58.30
49731;DHT22;35622;52.008;5.426;2022-12-18T12:16:08;4.80;56.70
49731;DHT22;35622;52.008;5.426;2022-12-18T12:26:35;4.80;57.50
49731;DHT22;35622;52.008;5.426;2022-12-18T12:29:31;4.60;57.10
49731;DHT22;35622;52.008;5.426;2022-12-18T12:35:18;4.90;56.70
49731;DHT22;35622;52.008;5.426;2022-12-18T12:40:26;5.20;55.70
49731;DHT22;35622;52.008;5.426;2022-12-18T12:43:22;5.40;56.20
49731;DHT22;35622;52.008;5.426;2022-12-18T12:46:06;5.00;55.40
49731;DHT22;35622;52.008;5.426;2022-12-18T12:51:32;5.20;56.10
49731;DHT22;35622;52.008;5.426;2022-12-18T12:53:59;5.50;56.00
49731;DHT22;35622;52.008;5.426;2022-12-18T12:56:51;5.40;55.50
49731;DHT22;35622;52.008;5.426;2022-12-18T13:02:11;5.40;55.60
49731;DHT22;35622;52.008;5.426;2022-12-18T13:07:28;5.10;55.00
49731;DHT22;35622;52.008;5.426;2022-12-18T13:10:23;5.10;56.00
49731;DHT22;35622;52.008;5.426;2022-12-18T13:13:09;4.60;56.60
49731;DHT22;35622;52.008;5.426;2022-12-18T13:15:46;4.50;56.60
49731;DHT22;35622;52.008;5.426;2022-12-18T13:18:20;4.50;57.60
49731;DHT22;35622;52.008;5.426;2022-12-18T13:21:32;4.70;56.60
49731;DHT22;35622;52.008;5.426;2022-12-18T13:23:38;4.30;57.80
49731;DHT22;35622;52.008;5.426;2022-12-18T13:31:00;4.60;56.50
49731;DHT22;35622;52.008;5.426;2022-12-18T13:36:13;4.30;57.10
49731;DHT22;35622;52.008;5.426;2022-12-18T13:38:40;3.80;57.60
49731;DHT22;35622;52.008;5.426;2022-12-18T13:46:30;4.20;58.30
49731;DHT22;35622;52.008;5.426;2022-12-18T13:51:44;4.30;57.50
49731;DHT22;35622;52.008;5.426;2022-12-18T13:54:27;4.50;57.60
49731;DHT22;35622;52.008;5.426;2022-12-18T13:56:54;4.50;57.30
49731;DHT22;35622;52.008;5.426;2022-12-18T13:59:24;4.60;57.30
49731;DHT22;35622;52.008;5.426;2022-12-18T14:07:06;4.80;57.00
49731;DHT22;35622;52.008;5.426;2022-12-18T14:09:39;4.30;57.00
49731;DHT22;35622;52.008;5.426;2022-12-18T14:12:06;4.30;57.80
49731;DHT22;35622;52.008;5.426;2022-12-18T14:14:56;4.00;58.00
49731;DHT22;35622;52.008;5.426;2022-12-18T14:17:22;4.30;57.90
49731;DHT22;35622;52.008;5.426;2022-12-18T14:19:50;4.00;58.90
49731;DHT22;35622;52.008;5.426;2022-12-18T14:22:25;3.90;58.50
49731;DHT22;35622;52.008;5.426;2022-12-18T14:25:17;3.70;58.50
49731;DHT22;35622;52.008;5.426;2022-12-18T14:28:21;3.80;58.50
49731;DHT22;35622;52.008;5.426;2022-12-18T14:30:44;3.70;58.50
49731;DHT22;35622;52.008;5.426;2022-12-18T14:33:13;4.10;58.60
49731;DHT22;35622;52.008;5.426;2022-12-18T14:35:52;4.30;58.10
49731;DHT22;35622;52.008;5.426;2022-12-18T14:38:28;4.30;57.60
49731;DHT22;35622;52.008;5.426;2022-12-18T14:40:58;3.80;58.60
49731;DHT22;35622;52.008;5.426;2022-12-18T14:43:24;4.10;58.50
49731;DHT22;35622;52.008;5.426;2022-12-18T14:45:50;4.10;58.80
49731;DHT22;35622;52.008;5.426;2022-12-18T14:48:36;4.00;58.50
49731;DHT22;35622;52.008;5.426;2022-12-18T14:51:17;4.10;58.70
49731;DHT22;35622;52.008;5.426;2022-12-18T14:53:46;4.40;58.20
49731;DHT22;35622;52.008;5.426;2022-12-18T14:59:04;4.70;57.70
49731;DHT22;35622;52.008;5.426;2022-12-18T15:01:31;4.30;57.10
49731;DHT22;35622;52.008;5.426;2022-12-18T15:03:58;4.30;57.70
49731;DHT22;35622;52.008;5.426;2022-12-18T15:06:36;4.10;57.90
49731;DHT22;35622;52.008;5.426;2022-12-18T15:09:24;3.60;59.00
49731;DHT22;35622;52.008;5.426;2022-12-18T15:11:56;3.80;58.80
49731;DHT22;35622;52.008;5.426;2022-12-18T15:14:39;4.30;58.40
49731;DHT22;35622;52.008;5.426;2022-12-18T15:17:18;4.50;57.80
49731;DHT22;35622;52.008;5.426;2022-12-18T15:19:45;4.50;57.10
49731;DHT22;35622;52.008;5.426;2022-12-18T15:24:47;4.10;58.50
49731;DHT22;35622;52.008;5.426;2022-12-18T15:32:38;4.50;57.70
49731;DHT22;35622;52.008;5.426;2022-12-18T15:37:33;4.80;56.80
49731;DHT22;35622;52.008;5.426;2022-12-18T15:39:58;4.40;56.40
49731;DHT22;35622;52.008;5.426;2022-12-18T15:42:24;4.40;57.00
49731;DHT22;35622;52.008;5.426;2022-12-18T15:45:11;4.40;57.00
49731;DHT22;35622;52.008;5.426;2022-12-18T15:47:37;4.50;57.30
49731;DHT22;35622;52.008;5.426;2022-12-18T15:50:04;4.10;57.40
49731;DHT22;35622;52.008;5.426;2022-12-18T15:52:30;3.80;57.40
49731;DHT22;35622;52.008;5.426;2022-12-18T15:54:57;3.60;58.40
49731;DHT22;35622;52.008;5.426;2022-12-18T15:57:41;4.10;58.40
49731;DHT22;35622;52.008;5.426;2022-12-18T16:00:11;4.10;58.70
49731;DHT22;35622;52.008;5.426;2022-12-18T16:02:37;3.50;58.30
49731;DHT22;35622;52.008;5.426;2022-12-18T16:05:03;3.60;59.00
49731;DHT22;35622;52.008;5.426;2022-12-18T16:07:30;3.70;59.00
49731;DHT22;35622;52.008;5.426;2022-12-18T16:09:55;3.80;58.90
49731;DHT22;35622;52.008;5.426;2022-12-18T16:12:23;3.90;58.30
49731;DHT22;35622;52.008;5.426;2022-12-18T16:14:49;3.70;58.30
49731;DHT22;35622;52.008;5.426;2022-12-18T16:17:15;3.70;58.80
49731;DHT22;35622;52.008;5.426;2022-12-18T16:19:41;3.80;58.60
49731;DHT22;35622;52.008;5.426;2022-12-18T16:22:20;4.10;58.50
49731;DHT22;35622;52.008;5.426;2022-12-18T16:24:46;3.60;58.80
49731;DHT22;35622;52.008;5.426;2022-12-18T16:27:12;3.40;60.00
49731;DHT22;35622;52.008;5.426;2022-12-18T16:29:37;3.50;60.00
49731;DHT22;35622;52.008;5.426;2022-12-18T16:32:03;3.80;59.50
49731;DHT22;35622;52.008;5.426;2022-12-18T16:34:33;3.90;59.30
49731;DHT22;35622;52.008;5.426;2022-12-18T16:37:07;3.90;58.80
49731;DHT22;35622;52.008;5.426;2022-12-18T16:39:33;3.70;58.30
49731;DHT22;35622;52.008;5.426;2022-12-18T16:42:04;3.90;58.80
49731;DHT22;35622;52.008;5.426;2022-12-18T16:44:30;4.00;58.30
49731;DHT22;35622;52.008;5.426;2022-12-18T16:46:56;4.00;57.90
49731;DHT22;35622;52.008;5.426;2022-12-18T16:49:27;4.00;58.20
49731;DHT22;35622;52.008;5.426;2022-12-18T16:51:53;4.00;58.00
49731;DHT22;35622;52.008;5.426;2022-12-18T16:54:19;3.70;58.60
49731;DHT22;35622;52.008;5.426;2022-12-18T16:56:45;3.20;59.10
49731;DHT22;35622;52.008;5.426;2022-12-18T16:59:14;3.60;59.90
49731;DHT22;35622;52.008;5.426;2022-12-18T17:01:39;3.20;59.60
49731;DHT22;35622;52.008;5.426;2022-12-18T17:04:06;3.60;60.70
49731;DHT22;35622;52.008;5.426;2022-12-18T17:06:35;3.90;59.70
49731;DHT22;35622;52.008;5.426;2022-12-18T17:09:04;3.30;59.00
49731;DHT22;35622;52.008;5.426;2022-12-18T17:11:31;3.30;60.10
49731;DHT22;35622;52.008;5.426;2022-12-18T17:13:57;3.90;59.70
49731;DHT22;35622;52.008;5.426;2022-12-18T17:16:24;4.20;58.70
49731;DHT22;35622;52.008;5.426;2022-12-18T17:18:51;3.80;58.50
49731;DHT22;35622;52.008;5.426;2022-12-18T17:21:17;3.90;58.90
49731;DHT22;35622;52.008;5.426;2022-12-18T17:23:43;4.00;58.90
49731;DHT22;35622;52.008;5.426;2022-12-18T17:26:10;4.20;58.40
49731;DHT22;35622;52.008;5.426;2022-12-18T17:28:37;4.40;57.70
49731;DHT22;35622;52.008;5.426;2022-12-18T17:31:15;4.50;57.60
49731;DHT22;35622;52.008;5.426;2022-12-18T17:33:41;4.40;57.50
49731;DHT22;35622;52.008;5.426;2022-12-18T17:36:08;3.90;58.30
49731;DHT22;35622;52.008;5.426;2022-12-18T17:38:35;4.10;58.60
49731;DHT22;35622;52.008;5.426;2022-12-18T17:41:06;4.40;58.40
49731;DHT22;35622;52.008;5.426;2022-12-18T17:43:32;4.40;58.10
49731;DHT22;35622;52.008;5.426;2022-12-18T17:46:05;4.50;57.90
49731;DHT22;35622;52.008;5.426;2022-12-18T17:48:32;4.50;57.90
49731;DHT22;35622;52.008;5.426;2022-12-18T17:51:02;4.70;57.30